Time,TemperatureF,DewpointF,PressureIn,WindDirection,WindDirectionDegrees,WindSpeedMPH,WindSpeedGustMPH,Humidity,HourlyPrecipIn,Conditions,Clouds,dailyrainin,SoftwareType,DateUTC
2013-03-10 00:02:00,33.0,29.0,29.53,SSE,168,0.0,0.0,85,0.00,RA,SKC,0.00,WeatherDisplay:10.37,2013-03-10 06:02:00,
2013-03-10 00:07:00,33.0,29.0,29.54,SSE,168,0.1,1.1,85,0.00,RA,SKC,0.00,WeatherDisplay:10.37,2013-03-10 06:07:00,
2013-03-10 00:12:00,33.2,29.2,29.53,SSE,168,1.1,2.3,85,0.00,OVC,SKC,0.00,WeatherDisplay:10.37,2013-03-10 06:12:00,
2013-03-10 00:17:00,33.2,29.2,29.53,SSE,168,1.4,3.0,85,0.00,OVC,SKC,0.00,WeatherDisplay:10.37,2013-03-10 06:17:00,
2013-03-10 00:22:00,33.2,29.2,29.52,NNW,336,1.2,3.5,85,0.00,OVC,SKC,0.00,WeatherDisplay:10.37,2013-03-10 06:22:00,
2013-03-10 00:27:00,33.2,29.2,29.52,NNW,336,2.0,3.5,85,0.00,OVC,SKC,0.00,WeatherDisplay:10.37,2013-03-10 06:27:00,
2013-03-10 00:32:00,33.1,29.1,29.52,NNW,336,2.2,3.5,85,0.00,OVC,SKC,0.00,WeatherDisplay:10.37,2013-03-10 06:32:00,
2013-03-10 00:37:00,33.1,29.1,29.52,NNW,339,2.1,3.5,85,0.00,OVC,SKC,0.00,WeatherDisplay:10.37,2013-03-10 06:37:00,
2013-03-10 00:42:00,33.1,29.1,29.53,NNW,340,3.1,5.0,85,0.00,OVC,SKC,0.00,WeatherDisplay:10.37,2013-03-10 06:42:00,
2013-03-10 00:47:00,33.2,29.2,29.53,NNW,340,1.9,3.5,85,0.00,OVC,SKC,0.00,WeatherDisplay:10.37,2013-03-10 06:47:00,
2013-03-10 00:52:00,33.2,29.2,29.52,NNW,341,2.0,4.6,85,0.00,OVC,SKC,0.00,WeatherDisplay:10.37,2013-03-10 06:52:00,
2013-03-10 00:57:00,33.2,29.2,29.53,NNW,340,1.5,3.0,85,0.00,OVC,SKC,0.00,WeatherDisplay:10.37,2013-03-10 06:57:00,
2013-03-10 01:02:00,33.2,29.2,29.54,North,360,1.6,5.8,85,0.00,OVC,SKC,0.00,WeatherDisplay:10.37,2013-03-10 07:02:00,
2013-03-10 01:07:00,33.2,29.2,29.54,NNW,347,1.2,3.5,85,0.00,OVC,SKC,0.00,WeatherDisplay:10.37,2013-03-10 07:07:00,
2013-03-10 01:12:00,33.2,29.2,29.55,NNW,347,1.9,3.5,85,0.00,OVC,SKC,0.00,WeatherDisplay:10.37,2013-03-10 07:12:00,
2013-03-10 01:17:00,33.2,29.2,29.55,North,355,2.9,4.6,85,0.00,OVC,SKC,0.00,WeatherDisplay:10.37,2013-03-10 07:17:00,
2013-03-10 01:22:00,33.2,29.2,29.55,North,355,0.9,3.5,85,0.00,OVC,SKC,0.00,WeatherDisplay:10.37,2013-03-10 07:22:00,
2013-03-10 01:27:00,33.1,29.1,29.54,North,355,1.8,3.5,85,0.00,OVC,SKC,0.00,WeatherDisplay:10.37,2013-03-10 07:27:00,
2013-03-10 01:32:00,33.2,29.2,29.54,NNW,332,2.4,4.6,85,0.00,OVC,SKC,0.00,WeatherDisplay:10.37,2013-03-10 07:32:00,
2013-03-10 01:37:00,33.2,29.2,29.54,NNW,329,3.1,6.9,85,0.00,OVC,SKC,0.00,WeatherDisplay:10.37,2013-03-10 07:37:00,
2013-03-10 01:42:00,33.2,29.2,29.54,NNW,348,2.5,5.8,85,0.00,OVC,SKC,0.00,WeatherDisplay:10.37,2013-03-10 07:42:00,
2013-03-10 01:47:00,33.2,29.2,29.53,NNW,336,2.3,4.0,85,0.00,OVC,SKC,0.00,WeatherDisplay:10.37,2013-03-10 07:47:00,
2013-03-10 01:53:00,33.2,29.2,29.54,North,355,3.5,5.8,85,0.00,OVC,SKC,0.00,WeatherDisplay:10.37,2013-03-10 07:53:00,
2013-03-10 01:58:00,33.2,29.2,29.54,NNW,348,3.0,5.0,85,0.00,OVC,SKC,0.00,WeatherDisplay:10.37,2013-03-10 07:58:00,
2013-03-10 03:03:00,33.1,29.1,29.54,NNW,338,3.5,6.0,85,0.00,OVC,SKC,0.00,WeatherDisplay:10.37,2013-03-10 08:03:00,
2013-03-10 03:08:00,33.1,29.1,29.54,NNW,342,3.1,6.0,85,0.00,OVC,SKC,0.00,WeatherDisplay:10.37,2013-03-10 08:08:00,
2013-03-10 03:13:00,33.1,29.1,29.54,North,350,3.2,6.0,85,0.00,OVC,SKC,0.00,WeatherDisplay:10.37,2013-03-10 08:13:00,
2013-03-10 03:18:00,33.1,29.1,29.55,North,355,1.9,3.5,85,0.00,OVC,SKC,0.00,WeatherDisplay:10.37,2013-03-10 08:18:00,
2013-03-10 03:23:00,33.1,29.1,29.54,NNW,333,2.7,8.1,85,0.00,OVC,SKC,0.00,WeatherDisplay:10.37,2013-03-10 08:23:00,
2013-03-10 03:28:00,33.1,29.1,29.54,NNW,345,4.9,8.1,85,0.00,OVC,SKC,0.00,WeatherDisplay:10.37,2013-03-10 08:28:00,
2013-03-10 03:33:00,33.0,29.0,29.52,NNW,331,4.1,6.0,85,0.00,OVC,SKC,0.00,WeatherDisplay:10.37,2013-03-10 08:33:00,
2013-03-10 03:38:00,33.0,29.0,29.53,NNW,343,2.9,4.6,85,0.00,OVC,SKC,0.00,WeatherDisplay:10.37,2013-03-10 08:38:00,
2013-03-10 03:43:00,33.0,29.0,29.54,NNW,330,2.7,5.8,85,0.00,OVC,SKC,0.00,WeatherDisplay:10.37,2013-03-10 08:43:00,
2013-03-10 03:48:00,32.9,28.9,29.54,North,351,1.9,3.5,85,0.00,OVC,SKC,0.00,WeatherDisplay:10.37,2013-03-10 08:48:00,
2013-03-10 03:53:00,33.0,29.0,29.54,North,355,2.0,5.0,85,0.00,OVC,SKC,0.00,WeatherDisplay:10.37,2013-03-10 08:53:00,
2013-03-10 03:58:00,33.0,29.0,29.54,NNW,340,2.4,4.6,85,0.00,OVC,SKC,0.00,WeatherDisplay:10.37,2013-03-10 08:58:00,
2013-03-10 04:03:00,33.0,29.0,29.53,NNW,333,5.2,10.4,85,0.00,OVC,SKC,0.00,WeatherDisplay:10.37,2013-03-10 09:03:00,
2013-03-10 04:08:00,33.0,29.0,29.52,North,355,4.1,8.0,85,0.00,OVC,SKC,0.00,WeatherDisplay:10.37,2013-03-10 09:08:00,
2013-03-10 04:13:00,33.0,29.0,29.51,North,350,3.9,8.1,85,0.00,OVC,SKC,0.00,WeatherDisplay:10.37,2013-03-10 09:13:00,
2013-03-10 04:18:00,32.9,28.9,29.50,NW,311,4.7,9.2,85,0.00,OVC,SKC,0.00,WeatherDisplay:10.37,2013-03-10 09:18:00,
2013-03-10 04:23:00,32.8,28.8,29.50,NNW,336,5.7,10.4,85,0.00,OVC,SKC,0.00,WeatherDisplay:10.37,2013-03-10 09:23:00,
2013-03-10 04:28:00,32.7,28.7,29.50,North,355,6.0,11.0,85,0.00,OVC,SKC,0.00,WeatherDisplay:10.37,2013-03-10 09:28:00,
2013-03-10 04:33:00,32.7,28.7,29.51,NNW,340,4.4,8.0,85,0.00,OVC,SKC,0.00,WeatherDisplay:10.37,2013-03-10 09:33:00,
2013-03-10 04:38:00,32.8,28.8,29.51,NW,324,3.7,5.8,85,0.00,OVC,SKC,0.00,WeatherDisplay:10.37,2013-03-10 09:38:00,
2013-03-10 04:43:00,32.8,28.8,29.51,NW,322,4.5,6.0,85,0.00,OVC,SKC,0.00,WeatherDisplay:10.37,2013-03-10 09:43:00,
2013-03-10 04:48:00,32.8,28.8,29.50,NNW,346,4.2,8.1,85,0.00,OVC,SKC,0.00,WeatherDisplay:10.37,2013-03-10 09:48:00,
2013-03-10 04:53:00,32.8,28.8,29.50,NW,323,4.3,6.9,85,0.00,OVC,SKC,0.00,WeatherDisplay:10.37,2013-03-10 09:53:00,
2013-03-10 04:58:00,32.9,28.9,29.51,NW,319,6.0,12.0,85,0.00,OVC,SKC,0.00,WeatherDisplay:10.37,2013-03-10 09:58:00,
2013-03-10 05:03:00,32.9,28.9,29.52,NW,323,6.4,11.0,85,0.00,OVC,SKC,0.00,WeatherDisplay:10.37,2013-03-10 10:03:00,
2013-03-10 05:08:00,32.9,28.9,29.51,NNW,336,5.9,10.0,85,0.00,OVC,SKC,0.00,WeatherDisplay:10.37,2013-03-10 10:08:00,
2013-03-10 05:13:00,32.8,28.8,29.52,NNW,346,5.4,11.5,85,0.00,-SN,SKC,0.00,WeatherDisplay:10.37,2013-03-10 10:13:00,
2013-03-10 05:18:00,32.8,28.8,29.53,NNW,327,4.5,8.1,85,0.00,-SN,SKC,0.00,WeatherDisplay:10.37,2013-03-10 10:18:00,
2013-03-10 05:23:00,32.9,28.9,29.53,NW,326,4.6,11.5,85,0.00,-SN,SKC,0.00,WeatherDisplay:10.37,2013-03-10 10:23:00,
2013-03-10 05:28:00,32.9,28.9,29.54,NNW,342,4.9,7.0,85,0.00,-SN,SKC,0.00,WeatherDisplay:10.37,2013-03-10 10:28:00,
2013-03-10 05:33:00,32.9,28.9,29.54,North,355,4.9,8.0,85,0.00,OVC,SKC,0.00,WeatherDisplay:10.37,2013-03-10 10:33:00,
2013-03-10 05:38:00,32.8,28.8,29.54,NNW,329,5.1,8.0,85,0.00,OVC,SKC,0.00,WeatherDisplay:10.37,2013-03-10 10:38:00,
2013-03-10 05:43:00,32.8,28.8,29.55,WNW,296,5.1,8.1,85,0.00,OVC,SKC,0.00,WeatherDisplay:10.37,2013-03-10 10:43:00,
2013-03-10 05:48:00,32.8,28.8,29.56,NW,310,4.7,7.0,85,0.00,OVC,SKC,0.00,WeatherDisplay:10.37,2013-03-10 10:48:00,
2013-03-10 05:53:00,32.8,28.8,29.56,NNW,333,4.3,11.5,85,0.00,OVC,SKC,0.00,WeatherDisplay:10.37,2013-03-10 10:53:00,
2013-03-10 05:58:00,32.7,28.7,29.56,NNW,347,6.6,12.0,85,0.00,OVC,SKC,0.00,WeatherDisplay:10.37,2013-03-10 10:58:00,
2013-03-10 06:03:00,32.7,28.7,29.57,NNW,339,4.8,11.5,85,0.00,OVC,SKC,0.00,WeatherDisplay:10.37,2013-03-10 11:03:00,
2013-03-10 06:08:00,32.7,28.7,29.57,North,9,6.1,13.0,85,0.00,OVC,SKC,0.00,WeatherDisplay:10.37,2013-03-10 11:08:00,
2013-03-10 06:13:00,32.7,28.7,29.57,North,355,6.5,11.0,85,0.00,OVC,SKC,0.00,WeatherDisplay:10.37,2013-03-10 11:13:00,
2013-03-10 06:18:00,32.7,28.7,29.58,North,360,6.2,9.2,85,0.01,RA,SKC,0.01,WeatherDisplay:10.37,2013-03-10 11:18:00,
2013-03-10 06:23:00,32.8,28.8,29.58,NNW,347,5.8,10.0,85,0.01,RA,SKC,0.01,WeatherDisplay:10.37,2013-03-10 11:23:00,
2013-03-10 06:28:00,32.8,28.8,29.59,NNW,332,6.7,11.0,85,0.01,OVC,SKC,0.01,WeatherDisplay:10.37,2013-03-10 11:28:00,
2013-03-10 06:33:00,32.8,28.5,29.60,North,360,5.5,10.4,84,0.02,RA,SKC,0.02,WeatherDisplay:10.37,2013-03-10 11:33:00,
2013-03-10 06:38:00,32.9,28.6,29.59,NW,314,3.3,9.2,84,0.02,RA,SKC,0.02,WeatherDisplay:10.37,2013-03-10 11:38:00,
2013-03-10 06:43:00,33.0,28.7,29.57,NNW,333,5.5,12.7,84,0.02,OVC,SKC,0.02,WeatherDisplay:10.37,2013-03-10 11:43:00,
2013-03-10 06:48:00,32.9,28.6,29.57,North,355,5.7,11.5,84,0.02,OVC,SKC,0.02,WeatherDisplay:10.37,2013-03-10 11:48:00,
2013-03-10 06:53:00,32.9,28.6,29.56,NNW,344,6.1,9.2,84,0.02,OVC,SKC,0.02,WeatherDisplay:10.37,2013-03-10 11:53:00,
2013-03-10 06:58:00,32.9,28.6,29.58,NW,304,4.9,8.1,84,0.02,OVC,SKC,0.02,WeatherDisplay:10.37,2013-03-10 11:58:00,
2013-03-10 07:03:00,32.8,28.5,29.57,North,360,5.4,10.4,84,0.02,OVC,SKC,0.02,WeatherDisplay:10.37,2013-03-10 12:03:00,
2013-03-10 07:08:00,32.8,28.5,29.58,NW,317,4.2,11.5,84,0.02,OVC,SKC,0.02,WeatherDisplay:10.37,2013-03-10 12:08:00,
2013-03-10 07:13:00,32.7,28.1,29.58,North,360,5.6,9.2,83,0.02,OVC,SKC,0.02,WeatherDisplay:10.37,2013-03-10 12:13:00,
2013-03-10 07:18:00,32.6,28.0,29.58,NNW,334,5.5,13.0,83,0.01,OVC,SKC,0.02,WeatherDisplay:10.37,2013-03-10 12:18:00,
2013-03-10 07:23:00,32.6,28.0,29.59,NNW,338,4.3,10.4,83,0.01,-SN,SKC,0.02,WeatherDisplay:10.37,2013-03-10 12:23:00,
2013-03-10 07:28:00,32.6,28.0,29.59,NNW,337,6.5,13.0,83,0.01,-SN,SKC,0.02,WeatherDisplay:10.37,2013-03-10 12:28:00,
2013-03-10 07:33:00,32.6,28.0,29.60,NNW,333,3.3,5.8,83,0.00,-SN,SKC,0.02,WeatherDisplay:10.37,2013-03-10 12:33:00,
2013-03-10 07:38:00,32.5,27.9,29.61,NNW,331,3.2,5.0,83,0.00,-SN,SKC,0.02,WeatherDisplay:10.37,2013-03-10 12:38:00,
2013-03-10 07:43:00,32.5,27.9,29.62,NNW,344,3.9,6.9,83,0.00,OVC,SKC,0.02,WeatherDisplay:10.37,2013-03-10 12:43:00,
2013-03-10 07:48:00,32.5,27.9,29.61,NW,311,5.9,10.0,83,0.00,OVC,SKC,0.02,WeatherDisplay:10.37,2013-03-10 12:48:00,
2013-03-10 07:53:00,32.4,27.8,29.62,North,350,5.2,11.5,83,0.00,OVC,SKC,0.03,WeatherDisplay:10.37,2013-03-10 12:53:00,
2013-03-10 07:58:00,32.3,27.7,29.62,NNW,344,3.4,9.2,83,0.01,RA,SKC,0.03,WeatherDisplay:10.37,2013-03-10 12:58:00,
2013-03-10 08:03:00,32.3,27.7,29.62,NNW,329,4.5,8.1,83,0.01,RA,SKC,0.03,WeatherDisplay:10.37,2013-03-10 13:03:00,
2013-03-10 08:08:00,32.2,27.6,29.62,NNW,327,3.4,4.6,83,0.01,OVC,SKC,0.03,WeatherDisplay:10.37,2013-03-10 13:08:00,
2013-03-10 08:13:00,32.2,27.6,29.62,NNW,340,3.4,9.0,83,0.01,OVC,SKC,0.03,WeatherDisplay:10.37,2013-03-10 13:13:00,
2013-03-10 08:18:00,32.2,27.6,29.63,North,350,4.5,6.0,83,0.01,OVC,SKC,0.03,WeatherDisplay:10.37,2013-03-10 13:18:00,
2013-03-10 08:23:00,32.1,27.5,29.63,NNW,337,3.6,8.1,83,0.01,-SN,SKC,0.03,WeatherDisplay:10.37,2013-03-10 13:23:00,
2013-03-10 08:28:00,32.1,27.5,29.63,NNW,341,4.2,8.0,83,0.01,-SN,SKC,0.03,WeatherDisplay:10.37,2013-03-10 13:28:00,
2013-03-10 08:33:00,32.1,27.5,29.63,NNW,334,4.2,8.1,83,0.01,-SN,SKC,0.03,WeatherDisplay:10.37,2013-03-10 13:33:00,
2013-03-10 08:38:00,32.1,27.5,29.64,NNW,339,4.5,6.9,83,0.01,-SN,SKC,0.03,WeatherDisplay:10.37,2013-03-10 13:38:00,
2013-03-10 08:43:00,32.1,27.5,29.64,North,355,3.2,6.9,83,0.01,-SN,SKC,0.03,WeatherDisplay:10.37,2013-03-10 13:43:00,
2013-03-10 08:48:00,32.1,27.5,29.64,NNW,333,4.5,8.1,83,0.01,-SN,SKC,0.03,WeatherDisplay:10.37,2013-03-10 13:48:00,
2013-03-10 08:53:00,32.1,27.5,29.64,NNW,335,5.5,9.2,83,0.01,-SN,SKC,0.03,WeatherDisplay:10.37,2013-03-10 13:53:00,
2013-03-10 08:58:00,32.1,27.5,29.64,NNW,332,4.4,6.9,83,0.00,-SN,SKC,0.03,WeatherDisplay:10.37,2013-03-10 13:58:00,
2013-03-10 09:03:00,32.1,27.5,29.63,NNW,342,5.7,10.4,83,0.00,-SN,SKC,0.03,WeatherDisplay:10.37,2013-03-10 14:03:00,
2013-03-10 09:08:00,32.0,27.4,29.63,NNW,335,6.1,9.0,83,0.00,-SN,SKC,0.03,WeatherDisplay:10.37,2013-03-10 14:08:00,
2013-03-10 09:13:00,32.1,27.5,29.62,NNW,331,5.9,10.4,83,0.00,-SN,SKC,0.03,WeatherDisplay:10.37,2013-03-10 14:13:00,
2013-03-10 09:18:00,32.0,27.4,29.62,NNW,341,5.9,10.4,83,0.00,-SN,SKC,0.03,WeatherDisplay:10.37,2013-03-10 14:18:00,
2013-03-10 09:23:00,32.1,27.5,29.62,NNW,335,5.2,9.2,83,0.00,OVC,SKC,0.03,WeatherDisplay:10.37,2013-03-10 14:23:00,
2013-03-10 09:28:00,32.1,27.5,29.63,NNW,342,5.8,11.5,83,0.00,OVC,SKC,0.03,WeatherDisplay:10.37,2013-03-10 14:28:00,
2013-03-10 09:33:00,32.0,27.4,29.63,NNW,327,9.1,15.0,83,0.00,OVC,SKC,0.03,WeatherDisplay:10.37,2013-03-10 14:33:00,
2013-03-10 09:53:00,32.1,27.5,29.66,NNW,347,9.6,15.0,83,0.00,OVC,SKC,0.03,WeatherDisplay:10.37,2013-03-10 14:53:00,
2013-03-10 09:58:00,32.1,27.5,29.66,North,355,8.4,12.0,83,0.00,RA,SKC,0.03,WeatherDisplay:10.37,2013-03-10 14:58:00,
2013-03-10 10:03:00,32.1,27.2,29.65,NNW,341,8.0,12.7,82,0.00,-SN,SKC,0.03,WeatherDisplay:10.37,2013-03-10 15:03:00,
2013-03-10 10:08:00,32.1,27.2,29.64,North,350,8.2,10.4,82,0.00,-SN,SKC,0.03,WeatherDisplay:10.37,2013-03-10 15:08:00,
2013-03-10 10:13:00,32.2,27.3,29.64,NW,323,7.5,12.7,82,0.00,-SN,SKC,0.03,WeatherDisplay:10.37,2013-03-10 15:13:00,
2013-03-10 10:18:00,32.2,27.3,29.64,NNW,329,8.9,19.6,82,0.00,-SN,SKC,0.03,WeatherDisplay:10.37,2013-03-10 15:18:00,
2013-03-10 10:23:00,32.2,27.3,29.63,NNW,341,8.9,15.0,82,0.00,-SN,SKC,0.03,WeatherDisplay:10.37,2013-03-10 15:23:00,
2013-03-10 10:28:00,32.2,27.3,29.64,North,350,9.2,18.4,82,0.00,-SN,SKC,0.03,WeatherDisplay:10.37,2013-03-10 15:28:00,
2013-03-10 10:33:00,32.3,27.4,29.64,North,349,7.9,15.0,82,0.01,-SN,SKC,0.04,WeatherDisplay:10.37,2013-03-10 15:33:00,
2013-03-10 10:38:00,32.4,27.5,29.65,WNW,300,8.3,11.5,82,0.01,-SN,SKC,0.04,WeatherDisplay:10.37,2013-03-10 15:38:00,
2013-03-10 10:43:00,32.5,27.3,29.65,NNW,337,10.4,15.0,81,0.01,-SN,SKC,0.04,WeatherDisplay:10.37,2013-03-10 15:43:00,
2013-03-10 10:48:00,32.5,27.3,29.65,NNW,345,8.7,12.0,81,0.01,-SN,SKC,0.04,WeatherDisplay:10.37,2013-03-10 15:48:00,
2013-03-10 10:53:00,32.6,27.4,29.65,North,5,9.1,13.0,81,0.01,-SN,SKC,0.04,WeatherDisplay:10.37,2013-03-10 15:53:00,
2013-03-10 10:58:00,32.6,27.4,29.65,North,351,8.8,13.8,81,0.01,-SN,SKC,0.04,WeatherDisplay:10.37,2013-03-10 15:58:00,
2013-03-10 11:03:00,32.7,27.5,29.66,NNW,343,8.1,13.0,81,0.01,OVC,SKC,0.04,WeatherDisplay:10.37,2013-03-10 16:03:00,
2013-03-10 11:08:00,32.8,27.6,29.66,NNW,327,8.0,15.0,81,0.01,OVC,SKC,0.04,WeatherDisplay:10.37,2013-03-10 16:08:00,
2013-03-10 11:13:00,32.8,27.3,29.65,NNW,348,9.7,14.0,80,0.01,OVC,SKC,0.04,WeatherDisplay:10.37,2013-03-10 16:13:00,
2013-03-10 11:18:00,32.8,27.3,29.64,NNW,335,8.6,11.5,80,0.01,OVC,SKC,0.04,WeatherDisplay:10.37,2013-03-10 16:18:00,
2013-03-10 11:23:00,32.9,27.4,29.64,NNW,339,8.2,12.7,80,0.01,-SN,SKC,0.04,WeatherDisplay:10.37,2013-03-10 16:23:00,
2013-03-10 11:28:00,32.9,27.4,29.63,North,351,7.6,10.4,80,0.01,-SN,SKC,0.04,WeatherDisplay:10.37,2013-03-10 16:28:00,
2013-03-10 11:33:00,33.0,27.5,29.62,NNE,17,9.7,17.3,80,0.00,-SN,SKC,0.04,WeatherDisplay:10.37,2013-03-10 16:33:00,
2013-03-10 11:38:00,33.0,27.5,29.63,North,355,11.5,15.0,80,0.00,-SN,SKC,0.04,WeatherDisplay:10.37,2013-03-10 16:38:00,
2013-03-10 11:43:00,33.0,27.5,29.65,NNW,346,9.5,13.0,80,0.00,OVC,SKC,0.04,WeatherDisplay:10.37,2013-03-10 16:43:00,
2013-03-10 11:48:00,33.0,27.5,29.66,North,360,6.9,10.4,80,0.00,OVC,SKC,0.04,WeatherDisplay:10.37,2013-03-10 16:48:00,
2013-03-10 11:53:00,33.1,27.6,29.67,NNW,332,8.2,11.5,80,0.00,OVC,SKC,0.04,WeatherDisplay:10.37,2013-03-10 16:53:00,
2013-03-10 11:58:00,33.1,27.6,29.67,NNW,329,8.5,12.0,80,0.00,OVC,SKC,0.04,WeatherDisplay:10.37,2013-03-10 16:58:00,
2013-03-10 12:03:00,33.2,27.7,29.67,North,9,6.9,10.4,80,0.00,OVC,SKC,0.04,WeatherDisplay:10.37,2013-03-10 17:03:00,
2013-03-10 12:08:00,33.2,27.4,29.67,NNW,347,6.7,10.4,79,0.00,OVC,SKC,0.04,WeatherDisplay:10.37,2013-03-10 17:08:00,
2013-03-10 12:13:00,33.2,27.7,29.67,North,349,6.1,8.1,80,0.00,OVC,SKC,0.04,WeatherDisplay:10.37,2013-03-10 17:13:00,
2013-03-10 12:18:00,33.3,27.5,29.66,NNW,348,7.6,11.5,79,0.00,OVC,SKC,0.04,WeatherDisplay:10.37,2013-03-10 17:18:00,
2013-03-10 12:23:00,33.3,27.8,29.65,North,355,6.9,11.5,80,0.00,OVC,SKC,0.04,WeatherDisplay:10.37,2013-03-10 17:23:00,
2013-03-10 12:28:00,33.4,27.6,29.64,NNW,338,8.8,11.5,79,0.00,OVC,SKC,0.04,WeatherDisplay:10.37,2013-03-10 17:28:00,
2013-03-10 12:33:00,33.4,27.6,29.63,NW,325,8.5,12.7,79,0.00,OVC,SKC,0.04,WeatherDisplay:10.37,2013-03-10 17:33:00,
2013-03-10 12:38:00,33.4,27.6,29.63,North,9,7.8,11.5,79,0.00,OVC,SKC,0.04,WeatherDisplay:10.37,2013-03-10 17:38:00,
2013-03-10 12:43:00,33.4,27.6,29.64,North,360,6.8,12.7,79,0.00,OVC,SKC,0.04,WeatherDisplay:10.37,2013-03-10 17:43:00,
2013-03-10 12:49:00,33.5,27.7,29.64,NNW,333,8.4,13.0,79,0.00,OVC,SKC,0.04,WeatherDisplay:10.37,2013-03-10 17:49:00,
2013-03-10 12:54:00,33.5,27.7,29.63,NNE,13,7.2,11.0,79,0.00,OVC,SKC,0.04,WeatherDisplay:10.37,2013-03-10 17:54:00,
2013-03-10 12:59:00,33.6,27.8,29.62,North,355,9.3,13.8,79,0.00,OVC,SKC,0.04,WeatherDisplay:10.37,2013-03-10 17:59:00,
2013-03-10 13:05:00,33.8,28.0,29.63,NW,317,8.6,12.7,79,0.00,OVC,SKC,0.04,WeatherDisplay:10.37,2013-03-10 18:05:00,
2013-03-10 13:10:00,33.8,28.0,29.62,NNW,346,8.2,12.0,79,0.00,OVC,SKC,0.04,WeatherDisplay:10.37,2013-03-10 18:10:00,
2013-03-10 13:15:00,33.9,27.8,29.62,North,355,8.5,11.0,78,0.00,OVC,SKC,0.04,WeatherDisplay:10.37,2013-03-10 18:15:00,
2013-03-10 13:20:00,33.9,27.8,29.62,North,360,7.9,12.0,78,0.00,OVC,SKC,0.04,WeatherDisplay:10.37,2013-03-10 18:20:00,
2013-03-10 13:25:00,34.0,27.9,29.61,NNW,345,8.2,11.5,78,0.00,OVC,SKC,0.04,WeatherDisplay:10.37,2013-03-10 18:25:00,
2013-03-10 13:30:00,34.1,28.0,29.61,North,355,8.9,12.0,78,0.00,OVC,SKC,0.04,WeatherDisplay:10.37,2013-03-10 18:30:00,
2013-03-10 13:35:00,34.1,28.0,29.61,NNW,340,8.3,11.5,78,0.00,OVC,SKC,0.04,WeatherDisplay:10.37,2013-03-10 18:35:00,
2013-03-10 13:40:00,34.1,28.0,29.61,North,355,9.0,12.0,78,0.00,OVC,SKC,0.04,WeatherDisplay:10.37,2013-03-10 18:40:00,
2013-03-10 13:45:00,34.1,28.0,29.61,NNW,340,10.8,13.0,78,0.00,OVC,SKC,0.04,WeatherDisplay:10.37,2013-03-10 18:45:00,
2013-03-10 13:50:00,34.2,27.7,29.61,NNW,347,9.5,13.0,77,0.00,OVC,SKC,0.04,WeatherDisplay:10.37,2013-03-10 18:50:00,
2013-03-10 13:55:00,34.2,27.7,29.60,NNW,330,9.8,13.0,77,0.00,OVC,SKC,0.04,WeatherDisplay:10.37,2013-03-10 18:55:00,
2013-03-10 14:00:00,34.3,27.8,29.60,North,355,7.9,12.7,77,0.00,OVC,SKC,0.04,WeatherDisplay:10.37,2013-03-10 19:00:00,
2013-03-10 14:05:00,34.3,27.8,29.60,North,355,10.6,16.0,77,0.00,OVC,SKC,0.04,WeatherDisplay:10.37,2013-03-10 19:05:00,
2013-03-10 14:10:00,34.4,27.9,29.60,North,355,8.8,13.8,77,0.00,OVC,SKC,0.04,WeatherDisplay:10.37,2013-03-10 19:10:00,
2013-03-10 14:15:00,34.3,27.8,29.60,NNW,341,8.4,12.0,77,0.01,RA,SKC,0.05,WeatherDisplay:10.37,2013-03-10 19:15:00,
2013-03-10 14:21:00,34.4,27.9,29.60,North,11,8.2,12.0,77,0.01,RA,SKC,0.05,WeatherDisplay:10.37,2013-03-10 19:21:00,
2013-03-10 14:26:00,34.4,27.9,29.61,North,5,7.0,11.5,77,0.01,OVC,SKC,0.05,WeatherDisplay:10.37,2013-03-10 19:26:00,
2013-03-10 14:31:00,34.3,27.8,29.61,NNW,348,7.7,11.5,77,0.01,OVC,SKC,0.05,WeatherDisplay:10.37,2013-03-10 19:31:00,
2013-03-10 14:36:00,34.2,27.7,29.60,NNW,346,6.5,10.4,77,0.01,OVC,SKC,0.05,WeatherDisplay:10.37,2013-03-10 19:36:00,
2013-03-10 14:41:00,34.1,27.6,29.60,NNW,347,7.7,11.5,77,0.01,OVC,SKC,0.05,WeatherDisplay:10.37,2013-03-10 19:41:00,
2013-03-10 14:46:00,34.0,27.5,29.60,North,349,8.8,11.5,77,0.01,OVC,SKC,0.05,WeatherDisplay:10.37,2013-03-10 19:46:00,
2013-03-10 14:51:00,33.9,27.4,29.60,NNW,341,8.0,12.0,77,0.00,OVC,SKC,0.05,WeatherDisplay:10.37,2013-03-10 19:51:00,
2013-03-10 14:57:00,33.8,27.4,29.60,North,9,7.6,11.5,77,0.01,OVC,SKC,0.05,WeatherDisplay:10.37,2013-03-10 19:57:00,
2013-03-10 15:02:00,33.8,27.7,29.59,NNW,333,8.8,11.5,78,0.01,OVC,SKC,0.05,WeatherDisplay:10.37,2013-03-10 20:02:00,
2013-03-10 15:07:00,33.8,27.7,29.59,North,355,9.5,17.3,78,0.01,OVC,SKC,0.05,WeatherDisplay:10.37,2013-03-10 20:07:00,
2013-03-10 15:12:00,33.7,27.6,29.59,North,355,9.3,14.0,78,0.00,OVC,SKC,0.05,WeatherDisplay:10.37,2013-03-10 20:12:00,
2013-03-10 15:17:00,33.7,27.6,29.59,North,350,7.1,11.0,78,0.00,OVC,SKC,0.05,WeatherDisplay:10.37,2013-03-10 20:17:00,
2013-03-10 15:22:00,33.7,27.6,29.59,NNW,337,9.2,13.0,78,0.00,OVC,SKC,0.05,WeatherDisplay:10.37,2013-03-10 20:22:00,
2013-03-10 15:27:00,33.7,27.6,29.58,NNW,343,11.3,16.0,78,0.00,OVC,SKC,0.05,WeatherDisplay:10.37,2013-03-10 20:27:00,
2013-03-10 15:33:00,33.5,27.4,29.58,North,355,7.9,13.0,78,0.00,OVC,SKC,0.05,WeatherDisplay:10.37,2013-03-10 20:33:00,
2013-03-10 15:38:00,33.4,27.3,29.58,North,351,9.4,11.5,78,0.00,OVC,SKC,0.05,WeatherDisplay:10.37,2013-03-10 20:38:00,
2013-03-10 15:43:00,33.3,27.2,29.58,NNW,343,8.3,15.0,78,0.00,-SN,SKC,0.05,WeatherDisplay:10.37,2013-03-10 20:43:00,
2013-03-10 15:48:00,33.1,27.3,29.57,NNW,334,9.2,16.0,79,0.00,-SN,SKC,0.05,WeatherDisplay:10.37,2013-03-10 20:48:00,
2013-03-10 15:53:00,33.0,27.2,29.57,NW,325,10.2,15.0,79,0.00,-SN,SKC,0.05,WeatherDisplay:10.37,2013-03-10 20:53:00,
2013-03-10 15:58:00,32.9,27.1,29.57,NNW,346,10.0,15.0,79,0.00,-SN,SKC,0.05,WeatherDisplay:10.37,2013-03-10 20:58:00,
2013-03-10 16:03:00,32.9,27.1,29.57,NNW,330,9.8,15.0,79,0.00,-SN,SKC,0.05,WeatherDisplay:10.37,2013-03-10 21:03:00,
2013-03-10 16:08:00,32.9,27.1,29.58,North,350,11.2,17.0,79,0.00,-SN,SKC,0.05,WeatherDisplay:10.37,2013-03-10 21:08:00,
2013-03-10 16:13:00,32.8,27.0,29.57,NNE,13,10.3,14.0,79,0.00,-SN,SKC,0.05,WeatherDisplay:10.37,2013-03-10 21:13:00,
2013-03-10 16:18:00,32.7,27.2,29.57,North,9,8.5,12.0,80,0.00,-SN,SKC,0.05,WeatherDisplay:10.37,2013-03-10 21:18:00,
2013-03-10 16:23:00,32.5,27.0,29.57,NW,323,7.4,10.4,80,0.00,-SN,SKC,0.05,WeatherDisplay:10.37,2013-03-10 21:23:00,
2013-03-10 16:28:00,32.4,26.9,29.57,NNW,342,8.7,12.7,80,0.00,-SN,SKC,0.05,WeatherDisplay:10.37,2013-03-10 21:28:00,
2013-03-10 16:33:00,32.4,26.9,29.57,NNW,341,7.3,12.7,80,0.00,-SN,SKC,0.05,WeatherDisplay:10.37,2013-03-10 21:33:00,
2013-03-10 16:38:00,32.4,26.9,29.57,NNE,20,7.7,14.0,80,0.00,-SN,SKC,0.05,WeatherDisplay:10.37,2013-03-10 21:38:00,
2013-03-10 16:43:00,32.4,26.9,29.57,NNW,334,7.4,13.8,80,0.00,-SN,SKC,0.05,WeatherDisplay:10.37,2013-03-10 21:43:00,
2013-03-10 16:48:00,32.3,26.8,29.57,NNW,340,7.6,11.5,80,0.00,-SN,SKC,0.05,WeatherDisplay:10.37,2013-03-10 21:48:00,
2013-03-10 16:53:00,32.2,26.7,29.57,North,5,9.3,13.0,80,0.00,-SN,SKC,0.05,WeatherDisplay:10.37,2013-03-10 21:53:00,
2013-03-10 16:58:00,32.2,27.0,29.57,North,350,9.2,12.0,81,0.00,-SN,SKC,0.05,WeatherDisplay:10.37,2013-03-10 21:58:00,
2013-03-10 17:04:00,32.1,26.9,29.57,NNW,345,7.8,11.5,81,0.00,-SN,SKC,0.05,WeatherDisplay:10.37,2013-03-10 22:04:00,
2013-03-10 17:09:00,31.9,26.7,29.57,North,360,6.8,9.2,81,0.00,-SN,SKC,0.05,WeatherDisplay:10.37,2013-03-10 22:09:00,
2013-03-10 17:14:00,31.7,26.8,29.57,North,5,6.2,9.0,82,0.00,-SN,SKC,0.05,WeatherDisplay:10.37,2013-03-10 22:14:00,
2013-03-10 17:19:00,31.4,26.5,29.57,NNW,348,7.1,11.5,82,0.00,-SN,SKC,0.05,WeatherDisplay:10.37,2013-03-10 22:19:00,
2013-03-10 17:24:00,31.3,26.4,29.57,North,360,7.9,12.0,82,0.00,OVC,SKC,0.05,WeatherDisplay:10.37,2013-03-10 22:24:00,
2013-03-10 17:29:00,31.2,26.3,29.57,NNW,342,7.6,11.0,82,0.00,OVC,SKC,0.05,WeatherDisplay:10.37,2013-03-10 22:29:00,
2013-03-10 17:34:00,31.1,26.2,29.57,North,5,7.6,11.5,82,0.00,OVC,SKC,0.05,WeatherDisplay:10.37,2013-03-10 22:34:00,
2013-03-10 17:39:00,31.0,26.4,29.56,NW,319,7.9,10.4,83,0.00,OVC,SKC,0.05,WeatherDisplay:10.37,2013-03-10 22:39:00,
2013-03-10 17:44:00,31.0,26.4,29.56,NNW,347,7.1,11.5,83,0.00,-SN,SKC,0.05,WeatherDisplay:10.37,2013-03-10 22:44:00,
2013-03-10 17:50:00,30.9,26.3,29.56,NW,325,7.0,19.0,83,0.00,-SN,SKC,0.05,WeatherDisplay:10.37,2013-03-10 22:50:00,
2013-03-10 17:57:00,30.8,26.2,29.55,NW,322,7.8,15.0,83,0.00,-SN,SKC,0.05,WeatherDisplay:10.37,2013-03-10 22:57:00,
2013-03-10 18:03:00,30.8,26.2,29.55,NNW,340,7.7,11.5,83,0.00,-SN,SKC,0.05,WeatherDisplay:10.37,2013-03-10 23:03:00,
2013-03-10 18:08:00,30.8,26.2,29.55,NW,311,6.8,11.5,83,0.00,-SN,SKC,0.05,WeatherDisplay:10.37,2013-03-10 23:08:00,
2013-03-10 18:13:00,30.8,26.2,29.56,NW,306,7.5,10.4,83,0.00,-SN,SKC,0.05,WeatherDisplay:10.37,2013-03-10 23:13:00,
2013-03-10 18:18:00,30.7,26.1,29.56,NNW,338,7.2,12.0,83,0.00,-SN,SKC,0.05,WeatherDisplay:10.37,2013-03-10 23:18:00,
2013-03-10 18:23:00,30.7,26.1,29.57,North,355,7.2,11.0,83,0.00,-SN,SKC,0.05,WeatherDisplay:10.37,2013-03-10 23:23:00,
2013-03-10 18:28:00,30.7,26.1,29.57,NNW,346,7.5,11.0,83,0.00,-SN,SKC,0.05,WeatherDisplay:10.37,2013-03-10 23:28:00,
2013-03-10 18:33:00,30.7,26.1,29.57,NW,323,6.9,9.2,83,0.00,-SN,SKC,0.05,WeatherDisplay:10.37,2013-03-10 23:33:00,
2013-03-10 18:38:00,30.6,26.1,29.58,NNW,327,5.8,9.2,83,0.00,-SN,SKC,0.05,WeatherDisplay:10.37,2013-03-10 23:38:00,
2013-03-10 18:43:00,30.6,26.1,29.58,NNW,333,6.1,9.2,83,0.00,-SN,SKC,0.05,WeatherDisplay:10.37,2013-03-10 23:43:00,
2013-03-10 18:48:00,30.6,26.1,29.59,North,5,6.4,9.0,83,0.00,-SN,SKC,0.05,WeatherDisplay:10.37,2013-03-10 23:48:00,
2013-03-10 18:53:00,30.5,26.0,29.59,NNW,340,5.9,9.2,83,0.00,-SN,SKC,0.05,WeatherDisplay:10.37,2013-03-10 23:53:00,
2013-03-10 18:58:00,30.4,25.9,29.60,NNW,333,5.4,9.0,83,0.00,-SN,SKC,0.05,WeatherDisplay:10.37,2013-03-10 23:58:00,
2013-03-10 19:03:00,30.4,25.9,29.61,NW,309,6.1,9.0,83,0.00,-SN,SKC,0.05,WeatherDisplay:10.37,2013-03-11 00:03:00,
2013-03-10 19:08:00,30.4,25.9,29.61,NNW,329,5.1,10.0,83,0.00,-SN,SKC,0.05,WeatherDisplay:10.37,2013-03-11 00:08:00,
2013-03-10 19:13:00,30.3,25.8,29.61,NNW,339,3.1,5.0,83,0.00,-SN,SKC,0.05,WeatherDisplay:10.37,2013-03-11 00:13:00,
2013-03-10 19:18:00,30.3,25.8,29.62,NW,319,4.2,6.0,83,0.00,-SN,SKC,0.05,WeatherDisplay:10.37,2013-03-11 00:18:00,
2013-03-10 19:23:00,30.2,25.9,29.62,NNW,341,4.9,7.0,84,0.00,OVC,SKC,0.05,WeatherDisplay:10.37,2013-03-11 00:23:00,
2013-03-10 19:28:00,30.2,25.9,29.62,North,355,3.6,6.9,84,0.00,OVC,SKC,0.05,WeatherDisplay:10.37,2013-03-11 00:28:00,
2013-03-10 19:33:00,30.1,25.8,29.62,NNW,329,3.3,6.0,84,0.00,OVC,SKC,0.05,WeatherDisplay:10.37,2013-03-11 00:33:00,
2013-03-10 19:38:00,30.1,25.8,29.63,NW,319,3.6,5.8,84,0.00,OVC,SKC,0.05,WeatherDisplay:10.37,2013-03-11 00:38:00,
2013-03-10 19:43:00,30.1,25.8,29.63,NNW,345,3.0,5.0,84,0.00,OVC,SKC,0.05,WeatherDisplay:10.37,2013-03-11 00:43:00,
2013-03-10 19:48:00,30.1,25.8,29.63,NNW,333,5.3,9.0,84,0.00,OVC,SKC,0.05,WeatherDisplay:10.37,2013-03-11 00:48:00,
2013-03-10 19:53:00,30.1,25.6,29.64,NNW,342,4.4,6.0,83,0.00,OVC,SKC,0.05,WeatherDisplay:10.37,2013-03-11 00:53:00,
2013-03-10 19:58:00,30.0,25.5,29.63,NW,315,2.5,5.8,83,0.00,OVC,SKC,0.05,WeatherDisplay:10.37,2013-03-11 00:58:00,
2013-03-10 20:03:00,30.0,25.5,29.63,NNW,344,3.1,5.0,83,0.00,OVC,SKC,0.05,WeatherDisplay:10.37,2013-03-11 01:03:00,
2013-03-10 20:08:00,30.0,25.8,29.63,NNW,333,3.4,5.0,84,0.00,OVC,SKC,0.05,WeatherDisplay:10.37,2013-03-11 01:08:00,
2013-03-10 20:13:00,29.9,25.7,29.63,NNW,336,3.9,6.0,84,0.00,OVC,SKC,0.05,WeatherDisplay:10.37,2013-03-11 01:13:00,
2013-03-10 20:18:00,29.9,25.7,29.62,NW,325,3.8,5.8,84,0.00,OVC,SKC,0.05,WeatherDisplay:10.37,2013-03-11 01:18:00,
2013-03-10 20:23:00,29.9,25.7,29.62,NNW,341,4.4,7.0,84,0.00,OVC,SKC,0.05,WeatherDisplay:10.37,2013-03-11 01:23:00,
2013-03-10 20:28:00,29.8,25.6,29.61,NNW,330,4.3,7.0,84,0.00,OVC,SKC,0.05,WeatherDisplay:10.37,2013-03-11 01:28:00,
2013-03-10 20:33:00,29.8,25.6,29.61,North,360,4.1,6.0,84,0.00,OVC,SKC,0.05,WeatherDisplay:10.37,2013-03-11 01:33:00,
2013-03-10 20:38:00,29.7,25.5,29.61,NNW,329,4.6,7.0,84,0.00,OVC,SKC,0.05,WeatherDisplay:10.37,2013-03-11 01:38:00,
2013-03-10 20:43:00,29.7,25.5,29.61,NNW,333,4.7,9.2,84,0.00,OVC,SKC,0.05,WeatherDisplay:10.37,2013-03-11 01:43:00,
2013-03-10 20:48:00,29.7,25.5,29.60,NNW,332,3.5,10.4,84,0.00,OVC,SKC,0.05,WeatherDisplay:10.37,2013-03-11 01:48:00,
2013-03-10 20:53:00,29.7,25.5,29.60,NNW,333,5.1,8.0,84,0.00,OVC,SKC,0.05,WeatherDisplay:10.37,2013-03-11 01:53:00,
2013-03-10 20:58:00,29.6,25.4,29.60,NNW,348,5.2,7.0,84,0.00,OVC,SKC,0.05,WeatherDisplay:10.37,2013-03-11 01:58:00,
2013-03-10 21:03:00,29.6,25.4,29.59,NNW,333,4.4,9.2,84,0.00,-SN,SKC,0.05,WeatherDisplay:10.37,2013-03-11 02:03:00,
2013-03-10 21:08:00,29.6,25.4,29.59,NNW,333,6.0,8.0,84,0.00,-SN,SKC,0.05,WeatherDisplay:10.37,2013-03-11 02:08:00,
2013-03-10 21:13:00,29.6,25.4,29.59,NW,324,5.7,10.4,84,0.00,-SN,SKC,0.05,WeatherDisplay:10.37,2013-03-11 02:13:00,
2013-03-10 21:18:00,29.5,25.3,29.59,North,360,6.4,10.4,84,0.00,-SN,SKC,0.05,WeatherDisplay:10.37,2013-03-11 02:18:00,
2013-03-10 21:23:00,29.5,25.3,29.59,NNW,348,6.1,8.1,84,0.00,-SN,SKC,0.05,WeatherDisplay:10.37,2013-03-11 02:23:00,
2013-03-10 21:28:00,29.5,25.3,29.59,NW,318,6.7,9.2,84,0.00,-SN,SKC,0.05,WeatherDisplay:10.37,2013-03-11 02:28:00,
2013-03-10 21:33:00,29.5,25.3,29.58,NW,324,7.7,12.0,84,0.00,-SN,SKC,0.05,WeatherDisplay:10.37,2013-03-11 02:33:00,
2013-03-10 21:38:00,29.4,25.2,29.58,North,355,8.2,16.1,84,0.00,-SN,SKC,0.05,WeatherDisplay:10.37,2013-03-11 02:38:00,
2013-03-10 21:43:00,29.4,25.2,29.58,NNW,328,6.0,9.2,84,0.00,-SN,SKC,0.05,WeatherDisplay:10.37,2013-03-11 02:43:00,
2013-03-10 21:48:00,29.4,25.2,29.58,NNW,344,5.6,11.5,84,0.00,-SN,SKC,0.05,WeatherDisplay:10.37,2013-03-11 02:48:00,
2013-03-10 21:53:00,29.4,25.2,29.58,NNW,331,5.3,8.1,84,0.00,-SN,SKC,0.05,WeatherDisplay:10.37,2013-03-11 02:53:00,
2013-03-10 21:58:00,29.4,25.2,29.58,NNW,344,7.4,12.0,84,0.00,-SN,SKC,0.05,WeatherDisplay:10.37,2013-03-11 02:58:00,
2013-03-10 22:03:00,29.4,25.2,29.58,NW,323,7.1,11.5,84,0.00,-SN,SKC,0.05,WeatherDisplay:10.37,2013-03-11 03:03:00,
2013-03-10 22:08:00,29.3,25.1,29.58,North,10,7.2,15.0,84,0.00,-SN,SKC,0.05,WeatherDisplay:10.37,2013-03-11 03:08:00,
2013-03-10 22:13:00,29.4,25.2,29.58,North,360,6.8,11.5,84,0.00,-SN,SKC,0.05,WeatherDisplay:10.37,2013-03-11 03:13:00,
2013-03-10 22:18:00,29.3,25.1,29.58,North,355,8.5,14.0,84,0.00,-SN,SKC,0.05,WeatherDisplay:10.37,2013-03-11 03:18:00,
2013-03-10 22:23:00,29.3,25.1,29.58,NNW,341,6.0,11.5,84,0.00,-SN,SKC,0.05,WeatherDisplay:10.37,2013-03-11 03:23:00,
2013-03-10 22:28:00,29.3,25.1,29.58,NNW,329,6.9,11.0,84,0.00,-SN,SKC,0.05,WeatherDisplay:10.37,2013-03-11 03:28:00,
2013-03-10 22:33:00,29.2,25.0,29.58,NNW,333,7.0,11.0,84,0.00,-SN,SKC,0.05,WeatherDisplay:10.37,2013-03-11 03:33:00,
2013-03-10 22:38:00,29.2,25.0,29.58,North,355,6.7,11.5,84,0.00,-SN,SKC,0.05,WeatherDisplay:10.37,2013-03-11 03:38:00,
2013-03-10 22:43:00,29.2,25.0,29.58,NNW,343,6.3,10.4,84,0.00,-SN,SKC,0.05,WeatherDisplay:10.37,2013-03-11 03:43:00,
2013-03-10 22:48:00,29.2,25.0,29.58,NNW,331,5.3,10.4,84,0.00,-SN,SKC,0.05,WeatherDisplay:10.37,2013-03-11 03:48:00,
2013-03-10 22:53:00,29.1,24.9,29.58,NW,323,6.1,9.2,84,0.00,-SN,SKC,0.05,WeatherDisplay:10.37,2013-03-11 03:53:00,
2013-03-10 22:58:00,29.1,24.9,29.58,NW,318,5.2,7.0,84,0.00,-SN,SKC,0.05,WeatherDisplay:10.37,2013-03-11 03:58:00,
2013-03-10 23:00:00,29.0,24.8,29.58,North,351,5.7,9.2,84,0.00,-SN,SKC,0.05,WeatherDisplay:10.37,2013-03-11 04:00:00,
2013-03-10 23:01:00,29.0,24.8,29.58,NNW,338,6.0,9.0,84,0.00,-SN,SKC,0.05,WeatherDisplay:10.37,2013-03-11 04:01:00,
2013-03-10 23:02:00,29.0,24.8,29.58,NNW,342,5.8,9.2,84,0.00,-SN,SKC,0.05,WeatherDisplay:10.37,2013-03-11 04:02:00,
2013-03-10 23:07:00,29.0,24.8,29.58,NNW,344,6.3,9.0,84,0.00,-SN,SKC,0.05,WeatherDisplay:10.37,2013-03-11 04:07:00,
2013-03-10 23:12:00,29.0,24.8,29.58,North,5,6.2,9.2,84,0.00,-SN,SKC,0.05,WeatherDisplay:10.37,2013-03-11 04:12:00,
2013-03-10 23:17:00,28.9,24.7,29.58,NNE,19,4.6,9.2,84,0.00,-SN,SKC,0.05,WeatherDisplay:10.37,2013-03-11 04:17:00,
2013-03-10 23:21:00,28.9,24.7,29.58,NNW,333,6.0,13.0,84,0.00,-SN,SKC,0.05,WeatherDisplay:10.37,2013-03-11 04:21:00,
2013-03-10 23:26:00,28.9,24.7,29.58,NNW,345,4.9,9.2,84,0.00,-SN,SKC,0.05,WeatherDisplay:10.37,2013-03-11 04:26:00,
2013-03-10 23:32:00,28.8,24.6,29.58,NNW,336,4.6,8.1,84,0.00,-SN,SKC,0.05,WeatherDisplay:10.37,2013-03-11 04:32:00,
2013-03-10 23:37:00,28.8,24.6,29.58,NW,314,6.5,9.0,84,0.00,-SN,SKC,0.05,WeatherDisplay:10.37,2013-03-11 04:37:00,
2013-03-10 23:42:00,28.8,24.6,29.58,NW,321,5.0,8.0,84,0.00,-SN,SKC,0.05,WeatherDisplay:10.37,2013-03-11 04:42:00,
2013-03-10 23:47:00,28.7,24.5,29.58,NNW,336,4.2,9.2,84,0.00,-SN,SKC,0.05,WeatherDisplay:10.37,2013-03-11 04:47:00,
2013-03-10 23:52:00,28.7,24.5,29.58,NNW,331,5.4,10.0,84,0.00,-SN,SKC,0.05,WeatherDisplay:10.37,2013-03-11 04:52:00,
2013-03-10 23:57:00,28.7,24.2,29.58,NNW,335,4.8,8.1,83,0.00,-SN,SKC,0.05,WeatherDisplay:10.37,2013-03-11 04:57:00,